createdAt,value
2023-02-03T00:25:39.789Z,99
2023-02-03T00:35:40.461Z,99
2023-02-03T00:55:41.833Z,99
2023-02-03T01:05:41.976Z,99
2023-02-03T01:15:43.065Z,99
2023-02-03T01:25:43.844Z,99
2023-02-03T01:45:45.066Z,98
2023-02-03T01:55:45.063Z,98
2023-02-03T02:05:45.906Z,98
2023-02-03T02:15:46.027Z,98
2023-02-03T02:25:46.864Z,97
2023-02-03T02:45:48.119Z,97
2023-02-03T02:55:48.486Z,97
2023-02-03T03:25:50.519Z,96
2023-02-03T05:25:58.510Z,94
2023-02-03T06:16:00.970Z,93
2023-02-03T06:26:01.285Z,93
2023-02-03T06:46:01.975Z,93
2023-02-03T06:56:02.060Z,93
2023-02-03T07:06:02.255Z,92
2023-02-03T07:26:02.923Z,92
2023-02-03T07:36:03.444Z,92
2023-02-03T07:46:03.944Z,92
2023-02-03T08:06:04.930Z,92
2023-02-03T08:26:06.688Z,92
2023-02-03T08:46:07.787Z,92
2023-02-03T11:06:17.704Z,93
2023-02-03T11:16:18.645Z,93
2023-02-03T11:36:19.169Z,94
2023-02-03T11:56:20.315Z,93
2023-02-03T12:06:20.886Z,93
2023-02-03T12:26:21.489Z,94
2023-02-03T12:36:22.435Z,96
2023-02-03T13:16:25.168Z,97
2023-02-03T13:26:25.268Z,97
2023-02-03T13:36:26.135Z,97
2023-02-03T13:46:26.372Z,96
2023-02-03T13:56:27.098Z,95
2023-02-03T14:06:27.442Z,94
2023-02-03T14:16:27.926Z,93
2023-02-03T14:26:28.857Z,92
2023-02-03T14:36:29.376Z,92
2023-02-03T14:46:30.470Z,91
2023-02-03T14:56:31.110Z,91
2023-02-03T15:06:31.734Z,91
2023-02-03T15:16:32.066Z,91
2023-02-03T15:26:32.850Z,90
2023-02-03T15:36:33.409Z,90
2023-02-03T15:46:34.230Z,89
2023-02-03T15:56:34.360Z,89
2023-02-03T16:06:34.724Z,88
2023-02-03T16:26:36.323Z,87
2023-02-03T16:36:36.800Z,87
2023-02-03T16:46:37.602Z,87
2023-02-03T16:56:38.490Z,88
2023-02-03T17:06:39.141Z,88
2023-02-03T17:16:39.322Z,88
2023-02-03T17:26:40.065Z,88
2023-02-03T17:36:40.582Z,88
2023-02-03T17:56:41.615Z,87
2023-02-03T18:06:42.619Z,88
2023-02-03T18:16:43.660Z,89
2023-02-03T18:26:44.118Z,89
2023-02-03T18:36:44.319Z,90
2023-02-03T18:37:06.184Z,90
2023-02-03T18:46:50.183Z,90
2023-02-03T18:56:51.203Z,90
2023-02-03T19:16:52.691Z,89
2023-02-03T19:26:53.183Z,90
2023-02-03T19:36:53.893Z,90
2023-02-03T19:46:54.670Z,90
2023-02-03T19:56:55.714Z,90
2023-02-03T20:06:56.176Z,90
2023-02-03T20:16:56.927Z,90
2023-02-03T20:26:57.460Z,90
2023-02-03T20:36:58.292Z,89
2023-02-03T20:46:58.573Z,89
2023-02-03T20:56:59.283Z,89
2023-02-03T21:07:00.312Z,89
2023-02-03T21:17:00.466Z,89
2023-02-03T21:27:01.344Z,89
2023-02-03T21:37:01.647Z,89
2023-02-03T21:47:01.816Z,89
2023-02-03T21:57:02.102Z,89
2023-02-03T22:07:02.548Z,89
2023-02-03T22:17:03.487Z,89
2023-02-03T22:27:04.047Z,89
2023-02-03T22:37:04.680Z,89
2023-02-03T22:47:05.242Z,89
2023-02-03T22:57:05.552Z,89
2023-02-03T23:17:06.382Z,89
2023-02-03T23:27:07.221Z,90
2023-02-03T23:47:07.816Z,91
2023-02-03T23:57:08.373Z,91
